sensor_id;sensor_type;location;lat;lon;timestamp;P1;durP1;ratioP1;P2;durP2;ratioP2
14890;SDS011;7537;48.014;11.590;2022-12-07T00:02:16;19.17;;;14.02;;
14890;SDS011;7537;48.014;11.590;2022-12-07T00:07:44;17.76;;;13.68;;
14890;SDS011;7537;48.014;11.590;2022-12-07T00:13:11;16.93;;;14.20;;
14890;SDS011;7537;48.014;11.590;2022-12-07T00:18:39;19.51;;;15.03;;
14890;SDS011;7537;48.014;11.590;2022-12-07T00:24:06;20.56;;;14.34;;
14890;SDS011;7537;48.014;11.590;2022-12-07T00:29:34;20.49;;;13.80;;
14890;SDS011;7537;48.014;11.590;2022-12-07T00:35:02;22.61;;;15.26;;
14890;SDS011;7537;48.014;11.590;2022-12-07T00:40:30;20.22;;;15.46;;
14890;SDS011;7537;48.014;11.590;2022-12-07T00:46:00;19.76;;;14.71;;
14890;SDS011;7537;48.014;11.590;2022-12-07T00:51:28;19.35;;;14.34;;
14890;SDS011;7537;48.014;11.590;2022-12-07T00:56:55;21.18;;;15.32;;
14890;SDS011;7537;48.014;11.590;2022-12-07T01:02:22;20.91;;;15.66;;
14890;SDS011;7537;48.014;11.590;2022-12-07T01:07:51;17.41;;;13.78;;
14890;SDS011;7537;48.014;11.590;2022-12-07T01:13:19;17.14;;;14.50;;
14890;SDS011;7537;48.014;11.590;2022-12-07T01:18:46;22.71;;;15.16;;
14890;SDS011;7537;48.014;11.590;2022-12-07T01:24:14;18.34;;;14.95;;
14890;SDS011;7537;48.014;11.590;2022-12-07T01:29:41;19.35;;;14.94;;
14890;SDS011;7537;48.014;11.590;2022-12-07T01:35:09;19.78;;;13.74;;
14890;SDS011;7537;48.014;11.590;2022-12-07T01:40:37;16.24;;;13.31;;
14890;SDS011;7537;48.014;11.590;2022-12-07T01:46:08;18.14;;;14.12;;
14890;SDS011;7537;48.014;11.590;2022-12-07T01:51:35;19.21;;;13.72;;
14890;SDS011;7537;48.014;11.590;2022-12-07T01:57:04;18.89;;;14.04;;
14890;SDS011;7537;48.014;11.590;2022-12-07T02:02:32;20.29;;;14.58;;
14890;SDS011;7537;48.014;11.590;2022-12-07T02:08:00;16.33;;;13.69;;
14890;SDS011;7537;48.014;11.590;2022-12-07T02:13:30;16.67;;;14.15;;
14890;SDS011;7537;48.014;11.590;2022-12-07T02:19:01;15.71;;;12.71;;
14890;SDS011;7537;48.014;11.590;2022-12-07T02:24:34;16.59;;;13.09;;
14890;SDS011;7537;48.014;11.590;2022-12-07T02:30:09;18.59;;;13.94;;
14890;SDS011;7537;48.014;11.590;2022-12-07T02:35:39;19.76;;;14.27;;
14890;SDS011;7537;48.014;11.590;2022-12-07T02:41:07;16.66;;;13.88;;
14890;SDS011;7537;48.014;11.590;2022-12-07T02:46:48;22.01;;;15.31;;
14890;SDS011;7537;48.014;11.590;2022-12-07T02:52:17;19.04;;;14.43;;
14890;SDS011;7537;48.014;11.590;2022-12-07T02:58:01;20.99;;;14.59;;
14890;SDS011;7537;48.014;11.590;2022-12-07T03:03:31;18.76;;;14.44;;
14890;SDS011;7537;48.014;11.590;2022-12-07T03:09:01;19.80;;;14.88;;
14890;SDS011;7537;48.014;11.590;2022-12-07T03:14:35;17.30;;;14.39;;
14890;SDS011;7537;48.014;11.590;2022-12-07T03:20:07;15.66;;;12.04;;
14890;SDS011;7537;48.014;11.590;2022-12-07T03:25:37;20.23;;;13.96;;
14890;SDS011;7537;48.014;11.590;2022-12-07T03:31:07;20.29;;;12.98;;
14890;SDS011;7537;48.014;11.590;2022-12-07T03:36:37;15.93;;;12.61;;
14890;SDS011;7537;48.014;11.590;2022-12-07T03:42:07;18.00;;;13.68;;
14890;SDS011;7537;48.014;11.590;2022-12-07T03:47:41;14.81;;;13.07;;
14890;SDS011;7537;48.014;11.590;2022-12-07T03:53:13;15.58;;;13.04;;
14890;SDS011;7537;48.014;11.590;2022-12-07T03:58:42;16.01;;;12.99;;
14890;SDS011;7537;48.014;11.590;2022-12-07T04:04:10;19.48;;;13.52;;
14890;SDS011;7537;48.014;11.590;2022-12-07T04:09:37;17.49;;;14.04;;
14890;SDS011;7537;48.014;11.590;2022-12-07T04:15:05;16.44;;;13.76;;
14890;SDS011;7537;48.014;11.590;2022-12-07T04:20:33;19.68;;;14.37;;
14890;SDS011;7537;48.014;11.590;2022-12-07T04:26:02;18.68;;;13.05;;
14890;SDS011;7537;48.014;11.590;2022-12-07T04:31:29;16.80;;;11.67;;
14890;SDS011;7537;48.014;11.590;2022-12-07T04:36:56;14.41;;;13.05;;
14890;SDS011;7537;48.014;11.590;2022-12-07T04:42:24;17.31;;;13.95;;
14890;SDS011;7537;48.014;11.590;2022-12-07T04:47:54;18.31;;;13.99;;
14890;SDS011;7537;48.014;11.590;2022-12-07T04:53:22;19.84;;;13.21;;
14890;SDS011;7537;48.014;11.590;2022-12-07T04:58:52;19.22;;;14.51;;
14890;SDS011;7537;48.014;11.590;2022-12-07T05:04:19;22.16;;;15.56;;
14890;SDS011;7537;48.014;11.590;2022-12-07T05:09:47;19.91;;;14.21;;
14890;SDS011;7537;48.014;11.590;2022-12-07T05:15:15;16.19;;;13.28;;
14890;SDS011;7537;48.014;11.590;2022-12-07T05:20:42;18.06;;;14.82;;
14890;SDS011;7537;48.014;11.590;2022-12-07T05:26:10;18.18;;;14.15;;
14890;SDS011;7537;48.014;11.590;2022-12-07T05:31:39;18.48;;;14.34;;
14890;SDS011;7537;48.014;11.590;2022-12-07T05:37:06;16.48;;;12.83;;
14890;SDS011;7537;48.014;11.590;2022-12-07T05:42:33;16.70;;;13.27;;
14890;SDS011;7537;48.014;11.590;2022-12-07T05:48:04;18.17;;;13.13;;
14890;SDS011;7537;48.014;11.590;2022-12-07T05:53:32;19.37;;;13.71;;
14890;SDS011;7537;48.014;11.590;2022-12-07T05:58:59;17.59;;;13.19;;
14890;SDS011;7537;48.014;11.590;2022-12-07T06:04:28;15.66;;;13.08;;
14890;SDS011;7537;48.014;11.590;2022-12-07T06:09:56;19.81;;;13.16;;
14890;SDS011;7537;48.014;11.590;2022-12-07T06:15:24;24.47;;;14.73;;
14890;SDS011;7537;48.014;11.590;2022-12-07T06:20:51;17.76;;;13.95;;
14890;SDS011;7537;48.014;11.590;2022-12-07T06:26:18;16.91;;;13.94;;
14890;SDS011;7537;48.014;11.590;2022-12-07T06:31:45;16.26;;;13.92;;
14890;SDS011;7537;48.014;11.590;2022-12-07T06:37:14;16.31;;;12.81;;
14890;SDS011;7537;48.014;11.590;2022-12-07T06:42:41;14.78;;;12.16;;
14890;SDS011;7537;48.014;11.590;2022-12-07T06:48:12;16.93;;;13.34;;
14890;SDS011;7537;48.014;11.590;2022-12-07T06:53:39;15.97;;;12.43;;
14890;SDS011;7537;48.014;11.590;2022-12-07T06:59:07;14.67;;;12.92;;
14890;SDS011;7537;48.014;11.590;2022-12-07T07:04:34;12.98;;;11.47;;
14890;SDS011;7537;48.014;11.590;2022-12-07T07:10:05;17.68;;;13.66;;
14890;SDS011;7537;48.014;11.590;2022-12-07T07:15:33;21.25;;;14.22;;
14890;SDS011;7537;48.014;11.590;2022-12-07T07:21:00;18.58;;;13.23;;
14890;SDS011;7537;48.014;11.590;2022-12-07T07:26:28;18.05;;;12.56;;
14890;SDS011;7537;48.014;11.590;2022-12-07T07:31:55;24.19;;;14.23;;
14890;SDS011;7537;48.014;11.590;2022-12-07T07:37:22;18.91;;;12.62;;
14890;SDS011;7537;48.014;11.590;2022-12-07T07:42:50;14.31;;;11.67;;
14890;SDS011;7537;48.014;11.590;2022-12-07T07:48:23;14.41;;;12.06;;
14890;SDS011;7537;48.014;11.590;2022-12-07T07:53:50;11.95;;;10.51;;
14890;SDS011;7537;48.014;11.590;2022-12-07T07:59:18;13.54;;;10.72;;
14890;SDS011;7537;48.014;11.590;2022-12-07T08:04:45;13.14;;;11.07;;
14890;SDS011;7537;48.014;11.590;2022-12-07T08:10:13;12.87;;;11.15;;
14890;SDS011;7537;48.014;11.590;2022-12-07T08:15:41;17.42;;;12.53;;
14890;SDS011;7537;48.014;11.590;2022-12-07T08:21:11;14.39;;;12.17;;
14890;SDS011;7537;48.014;11.590;2022-12-07T08:26:38;14.74;;;11.86;;
14890;SDS011;7537;48.014;11.590;2022-12-07T08:32:06;11.69;;;11.03;;
14890;SDS011;7537;48.014;11.590;2022-12-07T08:37:33;14.37;;;11.71;;
14890;SDS011;7537;48.014;11.590;2022-12-07T08:43:00;12.50;;;11.04;;
14890;SDS011;7537;48.014;11.590;2022-12-07T08:48:31;14.54;;;11.56;;
14890;SDS011;7537;48.014;11.590;2022-12-07T08:54:01;18.76;;;13.26;;
14890;SDS011;7537;48.014;11.590;2022-12-07T08:59:31;13.37;;;11.61;;
14890;SDS011;7537;48.014;11.590;2022-12-07T09:05:00;16.96;;;12.96;;
14890;SDS011;7537;48.014;11.590;2022-12-07T09:10:27;19.39;;;15.62;;
14890;SDS011;7537;48.014;11.590;2022-12-07T09:15:54;18.87;;;14.21;;
14890;SDS011;7537;48.014;11.590;2022-12-07T09:21:22;20.71;;;16.53;;
14890;SDS011;7537;48.014;11.590;2022-12-07T09:26:50;19.36;;;15.92;;
14890;SDS011;7537;48.014;11.590;2022-12-07T09:32:19;21.66;;;16.20;;
14890;SDS011;7537;48.014;11.590;2022-12-07T09:37:46;19.70;;;15.00;;
14890;SDS011;7537;48.014;11.590;2022-12-07T09:43:14;17.61;;;13.99;;
14890;SDS011;7537;48.014;11.590;2022-12-07T09:48:50;16.59;;;14.19;;
14890;SDS011;7537;48.014;11.590;2022-12-07T09:54:18;23.93;;;17.04;;
14890;SDS011;7537;48.014;11.590;2022-12-07T09:59:46;17.15;;;15.31;;
14890;SDS011;7537;48.014;11.590;2022-12-07T10:05:16;17.55;;;14.46;;
14890;SDS011;7537;48.014;11.590;2022-12-07T10:10:46;18.49;;;15.14;;
14890;SDS011;7537;48.014;11.590;2022-12-07T10:16:37;19.21;;;14.88;;
14890;SDS011;7537;48.014;11.590;2022-12-07T10:22:07;18.27;;;14.82;;
14890;SDS011;7537;48.014;11.590;2022-12-07T10:27:36;18.82;;;13.65;;
14890;SDS011;7537;48.014;11.590;2022-12-07T10:33:08;17.62;;;14.36;;
14890;SDS011;7537;48.014;11.590;2022-12-07T10:38:44;17.28;;;14.94;;
14890;SDS011;7537;48.014;11.590;2022-12-07T10:44:13;18.62;;;14.89;;
14890;SDS011;7537;48.014;11.590;2022-12-07T10:50:07;15.05;;;13.05;;
14890;SDS011;7537;48.014;11.590;2022-12-07T10:55:44;13.71;;;12.46;;
14890;SDS011;7537;48.014;11.590;2022-12-07T11:01:18;14.28;;;12.60;;
14890;SDS011;7537;48.014;11.590;2022-12-07T11:06:53;14.39;;;12.91;;
14890;SDS011;7537;48.014;11.590;2022-12-07T11:12:26;13.14;;;12.66;;
14890;SDS011;7537;48.014;11.590;2022-12-07T11:17:59;14.88;;;13.11;;
14890;SDS011;7537;48.014;11.590;2022-12-07T11:23:31;11.44;;;10.25;;
14890;SDS011;7537;48.014;11.590;2022-12-07T11:29:07;13.74;;;10.61;;
14890;SDS011;7537;48.014;11.590;2022-12-07T11:34:39;11.24;;;10.15;;
14890;SDS011;7537;48.014;11.590;2022-12-07T11:40:14;11.64;;;11.46;;
14890;SDS011;7537;48.014;11.590;2022-12-07T11:45:46;14.49;;;11.93;;
14890;SDS011;7537;48.014;11.590;2022-12-07T11:51:18;11.69;;;10.84;;
14890;SDS011;7537;48.014;11.590;2022-12-07T11:56:47;11.37;;;10.14;;
14890;SDS011;7537;48.014;11.590;2022-12-07T12:02:18;12.37;;;9.88;;
14890;SDS011;7537;48.014;11.590;2022-12-07T12:07:46;11.77;;;10.40;;
14890;SDS011;7537;48.014;11.590;2022-12-07T12:13:20;10.56;;;9.27;;
14890;SDS011;7537;48.014;11.590;2022-12-07T12:18:55;11.36;;;9.41;;
14890;SDS011;7537;48.014;11.590;2022-12-07T12:24:26;12.85;;;9.99;;
14890;SDS011;7537;48.014;11.590;2022-12-07T12:29:54;11.21;;;10.46;;
14890;SDS011;7537;48.014;11.590;2022-12-07T12:35:28;10.69;;;9.66;;
14890;SDS011;7537;48.014;11.590;2022-12-07T12:40:56;11.77;;;10.66;;
14890;SDS011;7537;48.014;11.590;2022-12-07T12:46:46;13.64;;;10.87;;
14890;SDS011;7537;48.014;11.590;2022-12-07T12:58:38;10.92;;;9.36;;
14890;SDS011;7537;48.014;11.590;2022-12-07T13:04:17;12.73;;;10.03;;
14890;SDS011;7537;48.014;11.590;2022-12-07T13:09:45;9.06;;;8.97;;
14890;SDS011;7537;48.014;11.590;2022-12-07T13:15:32;11.67;;;9.89;;
14890;SDS011;7537;48.014;11.590;2022-12-07T13:20:59;9.67;;;9.19;;
14890;SDS011;7537;48.014;11.590;2022-12-07T13:26:35;10.69;;;9.64;;
14890;SDS011;7537;48.014;11.590;2022-12-07T13:32:02;9.48;;;9.21;;
14890;SDS011;7537;48.014;11.590;2022-12-07T13:37:30;8.74;;;8.70;;
14890;SDS011;7537;48.014;11.590;2022-12-07T13:43:00;9.11;;;8.84;;
14890;SDS011;7537;48.014;11.590;2022-12-07T13:48:30;9.41;;;8.56;;
14890;SDS011;7537;48.014;11.590;2022-12-07T13:54:06;12.11;;;10.74;;
14890;SDS011;7537;48.014;11.590;2022-12-07T13:59:37;12.11;;;10.36;;
14890;SDS011;7537;48.014;11.590;2022-12-07T14:05:08;11.43;;;9.82;;
14890;SDS011;7537;48.014;11.590;2022-12-07T14:10:37;12.89;;;10.00;;
14890;SDS011;7537;48.014;11.590;2022-12-07T14:16:23;11.44;;;9.19;;
14890;SDS011;7537;48.014;11.590;2022-12-07T14:21:54;14.65;;;11.00;;
14890;SDS011;7537;48.014;11.590;2022-12-07T14:27:33;12.57;;;10.48;;
14890;SDS011;7537;48.014;11.590;2022-12-07T14:33:02;12.61;;;11.00;;
14890;SDS011;7537;48.014;11.590;2022-12-07T14:38:30;14.77;;;11.67;;
14890;SDS011;7537;48.014;11.590;2022-12-07T14:43:57;13.49;;;11.26;;
14890;SDS011;7537;48.014;11.590;2022-12-07T14:49:25;17.15;;;12.04;;
14890;SDS011;7537;48.014;11.590;2022-12-07T14:54:56;12.97;;;10.89;;
14890;SDS011;7537;48.014;11.590;2022-12-07T15:00:25;11.02;;;10.12;;
14890;SDS011;7537;48.014;11.590;2022-12-07T15:05:54;12.69;;;10.79;;
14890;SDS011;7537;48.014;11.590;2022-12-07T15:11:22;10.70;;;9.16;;
14890;SDS011;7537;48.014;11.590;2022-12-07T15:16:49;12.23;;;10.79;;
14890;SDS011;7537;48.014;11.590;2022-12-07T15:22:17;13.49;;;10.29;;
14890;SDS011;7537;48.014;11.590;2022-12-07T15:27:45;12.69;;;10.42;;
14890;SDS011;7537;48.014;11.590;2022-12-07T15:33:12;11.38;;;9.88;;
14890;SDS011;7537;48.014;11.590;2022-12-07T15:38:41;12.80;;;10.03;;
14890;SDS011;7537;48.014;11.590;2022-12-07T15:44:09;12.94;;;10.65;;
14890;SDS011;7537;48.014;11.590;2022-12-07T15:49:38;13.04;;;10.55;;
14890;SDS011;7537;48.014;11.590;2022-12-07T15:55:09;12.16;;;10.98;;
14890;SDS011;7537;48.014;11.590;2022-12-07T16:00:37;15.56;;;11.22;;
14890;SDS011;7537;48.014;11.590;2022-12-07T16:06:05;13.51;;;11.07;;
14890;SDS011;7537;48.014;11.590;2022-12-07T16:11:34;11.77;;;10.07;;
14890;SDS011;7537;48.014;11.590;2022-12-07T16:17:01;13.57;;;11.35;;
14890;SDS011;7537;48.014;11.590;2022-12-07T16:22:28;14.94;;;10.36;;
14890;SDS011;7537;48.014;11.590;2022-12-07T16:27:56;12.81;;;9.64;;
14890;SDS011;7537;48.014;11.590;2022-12-07T16:33:23;16.22;;;10.14;;
14890;SDS011;7537;48.014;11.590;2022-12-07T16:38:51;12.88;;;10.31;;
14890;SDS011;7537;48.014;11.590;2022-12-07T16:44:20;12.48;;;10.72;;
14890;SDS011;7537;48.014;11.590;2022-12-07T16:49:47;16.01;;;10.90;;
14890;SDS011;7537;48.014;11.590;2022-12-07T16:55:17;15.06;;;10.46;;
14890;SDS011;7537;48.014;11.590;2022-12-07T17:00:46;14.15;;;11.22;;
14890;SDS011;7537;48.014;11.590;2022-12-07T17:06:14;17.45;;;12.30;;
14890;SDS011;7537;48.014;11.590;2022-12-07T17:11:44;13.36;;;10.12;;
14890;SDS011;7537;48.014;11.590;2022-12-07T17:17:13;15.77;;;10.86;;
14890;SDS011;7537;48.014;11.590;2022-12-07T17:22:40;12.29;;;9.47;;
14890;SDS011;7537;48.014;11.590;2022-12-07T17:28:08;12.46;;;9.89;;
14890;SDS011;7537;48.014;11.590;2022-12-07T17:33:35;15.39;;;11.06;;
14890;SDS011;7537;48.014;11.590;2022-12-07T17:39:05;13.83;;;10.03;;
14890;SDS011;7537;48.014;11.590;2022-12-07T17:44:33;15.87;;;11.42;;
14890;SDS011;7537;48.014;11.590;2022-12-07T17:50:02;17.39;;;13.31;;
14890;SDS011;7537;48.014;11.590;2022-12-07T17:55:34;21.46;;;14.06;;
14890;SDS011;7537;48.014;11.590;2022-12-07T18:01:02;22.45;;;16.46;;
14890;SDS011;7537;48.014;11.590;2022-12-07T18:06:34;17.37;;;13.36;;
14890;SDS011;7537;48.014;11.590;2022-12-07T18:12:02;16.12;;;11.82;;
14890;SDS011;7537;48.014;11.590;2022-12-07T18:17:30;17.39;;;13.35;;
14890;SDS011;7537;48.014;11.590;2022-12-07T18:22:58;14.36;;;10.95;;
14890;SDS011;7537;48.014;11.590;2022-12-07T18:28:26;19.85;;;13.49;;
14890;SDS011;7537;48.014;11.590;2022-12-07T18:33:53;19.87;;;14.59;;
14890;SDS011;7537;48.014;11.590;2022-12-07T18:39:21;14.42;;;11.57;;
14890;SDS011;7537;48.014;11.590;2022-12-07T18:44:48;16.83;;;12.46;;
14890;SDS011;7537;48.014;11.590;2022-12-07T18:50:16;15.20;;;11.78;;
14890;SDS011;7537;48.014;11.590;2022-12-07T18:55:48;14.33;;;12.35;;
14890;SDS011;7537;48.014;11.590;2022-12-07T19:01:15;17.53;;;12.46;;
14890;SDS011;7537;48.014;11.590;2022-12-07T19:06:43;15.08;;;11.55;;
14890;SDS011;7537;48.014;11.590;2022-12-07T19:12:12;19.31;;;13.25;;
14890;SDS011;7537;48.014;11.590;2022-12-07T19:17:39;15.07;;;12.46;;
14890;SDS011;7537;48.014;11.590;2022-12-07T19:23:07;14.56;;;11.39;;
14890;SDS011;7537;48.014;11.590;2022-12-07T19:28:39;16.67;;;11.91;;
14890;SDS011;7537;48.014;11.590;2022-12-07T19:34:09;13.98;;;11.53;;
14890;SDS011;7537;48.014;11.590;2022-12-07T19:39:38;18.05;;;11.69;;
14890;SDS011;7537;48.014;11.590;2022-12-07T19:45:08;15.10;;;12.02;;
14890;SDS011;7537;48.014;11.590;2022-12-07T19:50:36;17.46;;;13.25;;
14890;SDS011;7537;48.014;11.590;2022-12-07T19:56:18;16.85;;;12.37;;
14890;SDS011;7537;48.014;11.590;2022-12-07T20:01:46;18.20;;;11.78;;
14890;SDS011;7537;48.014;11.590;2022-12-07T20:07:13;14.63;;;11.49;;
14890;SDS011;7537;48.014;11.590;2022-12-07T20:12:43;13.56;;;10.88;;
14890;SDS011;7537;48.014;11.590;2022-12-07T20:18:11;16.52;;;11.84;;
14890;SDS011;7537;48.014;11.590;2022-12-07T20:23:38;16.53;;;12.58;;
14890;SDS011;7537;48.014;11.590;2022-12-07T20:29:06;21.34;;;12.66;;
14890;SDS011;7537;48.014;11.590;2022-12-07T20:34:34;16.65;;;12.13;;
14890;SDS011;7537;48.014;11.590;2022-12-07T20:40:02;19.34;;;14.26;;
14890;SDS011;7537;48.014;11.590;2022-12-07T20:45:31;14.02;;;11.92;;
14890;SDS011;7537;48.014;11.590;2022-12-07T20:51:04;16.63;;;12.81;;
14890;SDS011;7537;48.014;11.590;2022-12-07T20:56:35;19.27;;;14.53;;
14890;SDS011;7537;48.014;11.590;2022-12-07T21:02:03;17.20;;;12.34;;
14890;SDS011;7537;48.014;11.590;2022-12-07T21:07:31;15.88;;;12.36;;
14890;SDS011;7537;48.014;11.590;2022-12-07T21:12:58;16.14;;;12.45;;
14890;SDS011;7537;48.014;11.590;2022-12-07T21:18:27;15.32;;;11.74;;
14890;SDS011;7537;48.014;11.590;2022-12-07T21:23:55;17.16;;;12.34;;
14890;SDS011;7537;48.014;11.590;2022-12-07T21:29:23;21.82;;;12.45;;
14890;SDS011;7537;48.014;11.590;2022-12-07T21:34:50;18.02;;;12.98;;
14890;SDS011;7537;48.014;11.590;2022-12-07T21:40:18;15.28;;;12.42;;
14890;SDS011;7537;48.014;11.590;2022-12-07T21:45:49;18.73;;;13.44;;
14890;SDS011;7537;48.014;11.590;2022-12-07T21:51:19;17.46;;;13.00;;
14890;SDS011;7537;48.014;11.590;2022-12-07T21:56:50;19.77;;;12.86;;
14890;SDS011;7537;48.014;11.590;2022-12-07T22:02:17;18.31;;;12.36;;
14890;SDS011;7537;48.014;11.590;2022-12-07T22:07:45;15.26;;;11.34;;
14890;SDS011;7537;48.014;11.590;2022-12-07T22:13:13;15.42;;;12.33;;
14890;SDS011;7537;48.014;11.590;2022-12-07T22:18:40;13.59;;;11.52;;
14890;SDS011;7537;48.014;11.590;2022-12-07T22:24:09;17.89;;;12.96;;
14890;SDS011;7537;48.014;11.590;2022-12-07T22:29:37;19.41;;;14.09;;
14890;SDS011;7537;48.014;11.590;2022-12-07T22:35:05;16.47;;;12.53;;
14890;SDS011;7537;48.014;11.590;2022-12-07T22:40:32;16.74;;;12.99;;
14890;SDS011;7537;48.014;11.590;2022-12-07T22:45:59;14.44;;;11.57;;
14890;SDS011;7537;48.014;11.590;2022-12-07T22:51:29;14.90;;;11.31;;
14890;SDS011;7537;48.014;11.590;2022-12-07T22:57:02;20.74;;;14.48;;
14890;SDS011;7537;48.014;11.590;2022-12-07T23:02:29;18.49;;;14.04;;
14890;SDS011;7537;48.014;11.590;2022-12-07T23:07:57;17.26;;;12.32;;
14890;SDS011;7537;48.014;11.590;2022-12-07T23:13:24;17.62;;;12.84;;
14890;SDS011;7537;48.014;11.590;2022-12-07T23:18:52;16.56;;;13.01;;
14890;SDS011;7537;48.014;11.590;2022-12-07T23:24:19;18.39;;;13.31;;
14890;SDS011;7537;48.014;11.590;2022-12-07T23:29:48;21.68;;;14.72;;
14890;SDS011;7537;48.014;11.590;2022-12-07T23:35:15;19.98;;;13.14;;
14890;SDS011;7537;48.014;11.590;2022-12-07T23:40:43;14.66;;;12.27;;
14890;SDS011;7537;48.014;11.590;2022-12-07T23:46:11;19.23;;;13.91;;
14890;SDS011;7537;48.014;11.590;2022-12-07T23:51:39;19.19;;;13.39;;
14890;SDS011;7537;48.014;11.590;2022-12-07T23:57:10;18.23;;;13.92;;
